createdAt,value
2018-11-20T00:01:19.539Z,6.87
2018-11-20T00:06:45.748Z,6.07
2018-11-20T00:12:08.003Z,7.43
2018-11-20T00:17:29.676Z,6.17
2018-11-20T00:22:42.179Z,6.47
2018-11-20T00:28:10.190Z,5.73
2018-11-20T00:33:32.457Z,6.53
2018-11-20T00:39:02.108Z,6.83
2018-11-20T00:44:25.638Z,6.00
2018-11-20T00:49:49.623Z,6.20
2018-11-20T00:55:13.213Z,6.37
2018-11-20T01:00:28.053Z,6.13
2018-11-20T01:05:49.940Z,6.77
2018-11-20T01:11:22.259Z,7.07
2018-11-20T01:16:47.855Z,7.07
2018-11-20T01:22:14.892Z,7.77
2018-11-20T01:27:37.069Z,7.80
2018-11-20T01:33:09.557Z,7.93
2018-11-20T01:38:31.816Z,7.27
2018-11-20T01:43:59.517Z,6.57
2018-11-20T01:49:14.437Z,7.37
2018-11-20T01:54:36.399Z,9.13
2018-11-20T02:00:05.929Z,8.33
2018-11-20T02:06:11.240Z,6.87
2018-11-20T02:11:29.359Z,8.67
2018-11-20T02:16:49.915Z,9.33
2018-11-20T02:22:06.334Z,7.63
2018-11-20T02:27:27.318Z,9.43
2018-11-20T02:33:01.663Z,8.57
2018-11-20T02:38:26.283Z,8.17
2018-11-20T02:43:48.579Z,10.07
2018-11-20T02:49:16.682Z,8.40
2018-11-20T02:54:37.923Z,9.87
2018-11-20T02:59:59.158Z,10.17
2018-11-20T03:05:30.627Z,8.87
2018-11-20T03:10:53.035Z,11.23
2018-11-20T03:16:12.584Z,9.27
2018-11-20T03:21:24.384Z,10.27
2018-11-20T03:26:45.051Z,11.97
2018-11-20T03:32:22.399Z,9.00
2018-11-20T03:37:43.427Z,11.03
2018-11-20T03:42:51.580Z,9.70
2018-11-20T03:48:12.483Z,10.23
2018-11-20T03:53:33.163Z,8.60
2018-11-20T03:58:50.168Z,9.63
2018-11-20T04:04:18.455Z,9.97
2018-11-20T04:09:42.839Z,9.53
2018-11-20T04:15:10.932Z,12.80
2018-11-20T04:20:33.269Z,10.90
2018-11-20T04:26:01.804Z,9.77
2018-11-20T04:32:14.803Z,10.47
2018-11-20T04:37:47.603Z,9.20
2018-11-20T04:43:09.952Z,9.30
2018-11-20T04:48:20.560Z,11.17
2018-11-20T04:53:48.921Z,9.67
2018-11-20T04:59:09.670Z,9.77
2018-11-20T05:04:23.904Z,10.43
2018-11-20T05:09:49.185Z,14.93
2018-11-20T05:15:10.329Z,10.97
2018-11-20T05:20:35.386Z,10.57
2018-11-20T05:26:13.104Z,12.07
2018-11-20T05:31:30.888Z,10.73
2018-11-20T05:36:51.814Z,9.57
2018-11-20T05:42:17.303Z,11.40
2018-11-20T05:47:39.689Z,10.57
2018-11-20T05:53:14.037Z,10.50
2018-11-20T05:58:45.374Z,11.53
2018-11-20T06:04:23.084Z,10.13
2018-11-20T06:09:44.026Z,11.00
2018-11-20T06:15:12.389Z,11.50
2018-11-20T06:20:28.690Z,10.43
2018-11-20T06:25:49.753Z,12.20
2018-11-20T06:31:14.037Z,11.53
2018-11-20T06:36:35.236Z,10.97
2018-11-20T06:42:09.701Z,15.20
2018-11-20T06:47:31.632Z,10.30
2018-11-20T06:52:53.983Z,11.80
2018-11-20T06:58:19.311Z,14.30
2018-11-20T07:03:41.670Z,11.17
2018-11-20T07:09:02.589Z,10.67
2018-11-20T07:14:38.838Z,12.27
2018-11-20T07:20:16.412Z,11.63
2018-11-20T07:25:37.397Z,11.07
2018-11-20T07:31:05.658Z,13.60
2018-11-20T07:36:37.378Z,11.23
2018-11-20T07:42:11.572Z,12.23
2018-11-20T07:47:43.688Z,11.97
2018-11-20T07:53:07.151Z,13.20
2018-11-20T07:58:35.270Z,12.87
2018-11-20T08:03:55.348Z,12.77
2018-11-20T08:09:09.512Z,14.67
2018-11-20T08:14:30.404Z,14.23
2018-11-20T08:20:00.581Z,13.27
2018-11-20T08:25:24.712Z,14.60
2018-11-20T08:30:45.562Z,17.10
2018-11-20T08:36:16.899Z,16.93
2018-11-20T08:41:27.945Z,16.60
2018-11-20T08:46:49.012Z,15.30
2018-11-20T08:52:08.328Z,14.60
2018-11-20T08:57:28.902Z,16.53
2018-11-20T09:02:57.220Z,15.33
2018-11-20T09:08:22.206Z,15.37
2018-11-20T09:13:43.517Z,16.00
2018-11-20T09:19:12.483Z,17.23
2018-11-20T09:24:48.381Z,17.17
2018-11-20T09:30:10.781Z,18.27
2018-11-20T09:35:30.331Z,16.93
2018-11-20T09:41:02.499Z,14.80
2018-11-20T09:46:30.646Z,17.37
2018-11-20T09:51:51.649Z,14.87
2018-11-20T09:57:12.832Z,14.90
2018-11-20T10:02:22.828Z,16.93
2018-11-20T10:08:00.228Z,13.20
2018-11-20T10:13:09.900Z,15.03
2018-11-20T10:18:50.622Z,17.00
2018-11-20T10:24:19.127Z,14.33
2018-11-20T10:29:58.749Z,14.10
2018-11-20T10:35:30.135Z,11.67
2018-11-20T10:41:07.452Z,13.93
2018-11-20T10:46:45.303Z,13.10
2018-11-20T10:52:25.827Z,11.10
2018-11-20T10:57:44.088Z,14.00
2018-11-20T11:03:05.125Z,12.97
2018-11-20T11:08:33.422Z,14.57
2018-11-20T11:14:08.273Z,12.03
2018-11-20T11:19:26.687Z,13.40
2018-11-20T11:24:55.193Z,13.93
2018-11-20T11:30:11.479Z,11.03
2018-11-20T11:35:33.532Z,11.80
2018-11-20T11:40:54.582Z,11.53
2018-11-20T11:46:29.391Z,11.67
2018-11-20T11:51:51.781Z,12.13
2018-11-20T11:57:14.614Z,11.00
2018-11-20T12:08:08.186Z,13.10
2018-11-20T12:13:37.066Z,11.47
2018-11-20T12:19:12.058Z,10.87
2018-11-20T12:24:29.303Z,11.57
2018-11-20T12:29:51.198Z,15.53
2018-11-20T12:35:21.134Z,11.10
2018-11-20T12:40:48.573Z,12.67
2018-11-20T12:46:24.898Z,10.67
2018-11-20T12:52:00.728Z,9.63
2018-11-20T12:57:25.653Z,12.07
2018-11-20T13:02:50.363Z,10.67
2018-11-20T13:08:20.816Z,11.97
2018-11-20T13:13:37.187Z,10.20
2018-11-20T13:18:54.371Z,11.10
2018-11-20T13:24:21.339Z,11.67
2018-11-20T13:29:49.758Z,12.10
2018-11-20T13:35:10.824Z,11.13
2018-11-20T13:41:19.619Z,13.13
2018-11-20T13:46:40.740Z,14.03
2018-11-20T13:51:55.834Z,12.53
2018-11-20T13:57:17.727Z,13.53
2018-11-20T14:02:39.434Z,14.13
2018-11-20T14:08:03.486Z,15.33
2018-11-20T14:13:33.065Z,16.43
2018-11-20T14:18:54.330Z,15.53
2018-11-20T14:24:13.972Z,16.20
2018-11-20T14:29:35.177Z,17.00
2018-11-20T14:35:15.709Z,15.80
2018-11-20T14:40:33.322Z,18.57
2018-11-20T14:46:08.382Z,17.17
2018-11-20T14:51:32.187Z,18.03
2018-11-20T14:56:57.565Z,17.00
2018-11-20T15:02:18.674Z,19.17
2018-11-20T15:07:59.429Z,20.77
2018-11-20T15:13:24.235Z,20.10
2018-11-20T15:18:45.625Z,19.47
2018-11-20T15:24:20.278Z,19.30
2018-11-20T15:29:41.744Z,20.07
2018-11-20T15:35:03.124Z,19.37
2018-11-20T15:40:33.268Z,19.23
2018-11-20T15:46:13.830Z,20.63
2018-11-20T15:51:45.064Z,19.10
2018-11-20T15:57:07.471Z,19.00
2018-11-20T16:02:28.907Z,19.23
2018-11-20T16:07:51.240Z,17.53
2018-11-20T16:13:13.027Z,18.80
2018-11-20T16:18:41.190Z,19.13
2018-11-20T16:24:06.234Z,14.37
2018-11-20T16:29:19.022Z,17.20
2018-11-20T16:34:45.437Z,17.40
2018-11-20T16:40:06.396Z,15.07
2018-11-20T16:45:27.769Z,18.40
2018-11-20T16:51:02.354Z,17.20
2018-11-20T16:56:20.636Z,20.20
2018-11-20T17:01:33.059Z,14.73
2018-11-20T17:06:42.392Z,17.23
2018-11-20T17:12:04.751Z,18.53
2018-11-20T17:17:25.691Z,15.67
2018-11-20T17:22:46.916Z,17.63
2018-11-20T17:28:18.107Z,17.63
2018-11-20T17:33:58.814Z,18.13
2018-11-20T17:39:20.110Z,17.52
2018-11-20T17:44:40.978Z,19.37
2018-11-20T17:50:02.323Z,16.13
2018-11-20T17:55:19.886Z,18.57
2018-11-20T18:00:48.402Z,20.10
2018-11-20T18:06:04.921Z,17.87
2018-11-20T18:11:30.272Z,18.60
2018-11-20T18:16:52.805Z,20.00
2018-11-20T18:22:13.720Z,18.97
2018-11-20T18:27:36.194Z,19.90
2018-11-20T18:33:04.485Z,20.77
2018-11-20T18:38:45.476Z,20.90
2018-11-20T18:44:10.564Z,23.17
2018-11-20T18:49:31.744Z,20.63
2018-11-20T18:54:54.107Z,24.37
2018-11-20T19:00:16.483Z,27.37
2018-11-20T19:05:37.278Z,23.60
2018-11-20T19:11:14.786Z,25.97
2018-11-20T19:16:37.151Z,24.10
2018-11-20T19:21:58.104Z,25.33
2018-11-20T19:27:22.513Z,22.23
2018-11-20T19:32:53.750Z,24.43
2018-11-20T19:38:15.469Z,22.40
2018-11-20T19:43:46.893Z,23.53
2018-11-20T19:49:08.160Z,28.30
2018-11-20T19:54:48.927Z,21.67
2018-11-20T20:00:13.929Z,20.87
2018-11-20T20:05:37.522Z,22.60
2018-11-20T20:11:05.578Z,23.73
2018-11-20T20:16:28.548Z,26.00
2018-11-20T20:21:49.733Z,26.77
2018-11-20T20:27:10.917Z,24.20
2018-11-20T20:32:32.947Z,24.60
2018-11-20T20:37:54.770Z,24.87
2018-11-20T20:43:16.717Z,22.03
2018-11-20T20:48:51.026Z,23.80
2018-11-20T20:54:13.571Z,23.00
2018-11-20T20:59:38.528Z,24.33
2018-11-20T21:05:08.391Z,21.63
2018-11-20T21:10:29.267Z,26.87
2018-11-20T21:16:09.529Z,23.60
2018-11-20T21:21:28.167Z,22.17
2018-11-20T21:26:49.118Z,23.60
2018-11-20T21:32:10.209Z,24.20
2018-11-20T21:37:38.278Z,23.73
2018-11-20T21:43:03.508Z,23.47
2018-11-20T21:48:18.637Z,20.70
2018-11-20T21:53:50.759Z,22.53
2018-11-20T21:59:18.514Z,21.73
2018-11-20T22:04:39.516Z,23.20
2018-11-20T22:09:56.117Z,27.47
2018-11-20T22:15:16.977Z,21.07
2018-11-20T22:20:38.826Z,24.17
2018-11-20T22:25:59.942Z,24.57
2018-11-20T22:31:21.111Z,21.63
2018-11-20T22:36:58.534Z,23.80
2018-11-20T22:42:20.302Z,22.20
2018-11-20T22:47:41.183Z,24.10
2018-11-20T22:53:02.296Z,23.83
2018-11-20T22:58:33.795Z,24.10
2018-11-20T23:04:08.165Z,21.60
2018-11-20T23:09:11.349Z,26.57
2018-11-20T23:14:14.194Z,23.43
2018-11-20T23:19:17.273Z,24.13
2018-11-20T23:24:20.091Z,24.20
2018-11-20T23:29:23.065Z,27.33
2018-11-20T23:34:25.861Z,22.93
2018-11-20T23:39:28.763Z,25.63
2018-11-20T23:44:31.636Z,25.70
2018-11-20T23:49:34.489Z,23.33
2018-11-20T23:54:37.303Z,23.77
2018-11-20T23:59:40.170Z,22.27
